sensor_id;sensor_type;location;lat;lon;timestamp;P1;durP1;ratioP1;P2;durP2;ratioP2
23129;SDS011;11734;51.046;13.778;2024-03-02T00:00:49;51.43;;;36.57;;
23129;SDS011;11734;51.046;13.778;2024-03-02T00:03:18;56.83;;;38.37;;
23129;SDS011;11734;51.046;13.778;2024-03-02T00:05:49;53.50;;;38.37;;
23129;SDS011;11734;51.046;13.778;2024-03-02T00:08:19;57.80;;;40.10;;
23129;SDS011;11734;51.046;13.778;2024-03-02T00:10:49;51.03;;;36.93;;
23129;SDS011;11734;51.046;13.778;2024-03-02T00:13:18;55.30;;;38.27;;
23129;SDS011;11734;51.046;13.778;2024-03-02T00:15:52;51.07;;;36.77;;
23129;SDS011;11734;51.046;13.778;2024-03-02T00:18:30;54.30;;;38.00;;
23129;SDS011;11734;51.046;13.778;2024-03-02T00:20:58;53.33;;;38.60;;
23129;SDS011;11734;51.046;13.778;2024-03-02T00:23:31;56.87;;;38.93;;
23129;SDS011;11734;51.046;13.778;2024-03-02T00:25:59;57.33;;;38.10;;
23129;SDS011;11734;51.046;13.778;2024-03-02T00:28:27;56.07;;;39.90;;
23129;SDS011;11734;51.046;13.778;2024-03-02T00:33:26;55.07;;;37.40;;
23129;SDS011;11734;51.046;13.778;2024-03-02T00:35:54;56.23;;;38.90;;
23129;SDS011;11734;51.046;13.778;2024-03-02T00:38:22;56.23;;;38.63;;
23129;SDS011;11734;51.046;13.778;2024-03-02T00:40:50;52.33;;;37.30;;
23129;SDS011;11734;51.046;13.778;2024-03-02T00:46:04;48.53;;;36.63;;
23129;SDS011;11734;51.046;13.778;2024-03-02T00:48:32;53.23;;;36.23;;
23129;SDS011;11734;51.046;13.778;2024-03-02T00:51:02;47.67;;;34.90;;
23129;SDS011;11734;51.046;13.778;2024-03-02T00:53:34;48.90;;;34.57;;
23129;SDS011;11734;51.046;13.778;2024-03-02T00:56:01;51.17;;;35.00;;
23129;SDS011;11734;51.046;13.778;2024-03-02T00:58:28;48.43;;;35.10;;
23129;SDS011;11734;51.046;13.778;2024-03-02T01:00:56;47.10;;;34.20;;
23129;SDS011;11734;51.046;13.778;2024-03-02T01:03:23;46.47;;;34.50;;
23129;SDS011;11734;51.046;13.778;2024-03-02T01:05:51;45.87;;;33.50;;
23129;SDS011;11734;51.046;13.778;2024-03-02T01:08:19;51.10;;;34.43;;
23129;SDS011;11734;51.046;13.778;2024-03-02T01:10:46;49.43;;;34.80;;
23129;SDS011;11734;51.046;13.778;2024-03-02T01:13:13;47.50;;;31.97;;
23129;SDS011;11734;51.046;13.778;2024-03-02T01:15:41;43.70;;;33.17;;
23129;SDS011;11734;51.046;13.778;2024-03-02T01:18:08;46.70;;;35.73;;
23129;SDS011;11734;51.046;13.778;2024-03-02T01:20:35;47.67;;;34.13;;
23129;SDS011;11734;51.046;13.778;2024-03-02T01:23:02;44.63;;;34.10;;
23129;SDS011;11734;51.046;13.778;2024-03-02T01:25:30;45.57;;;32.83;;
23129;SDS011;11734;51.046;13.778;2024-03-02T01:27:57;46.63;;;35.57;;
23129;SDS011;11734;51.046;13.778;2024-03-02T01:30:24;43.43;;;31.73;;
23129;SDS011;11734;51.046;13.778;2024-03-02T01:32:52;44.97;;;32.40;;
23129;SDS011;11734;51.046;13.778;2024-03-02T01:35:19;45.43;;;31.37;;
23129;SDS011;11734;51.046;13.778;2024-03-02T01:37:46;44.90;;;33.13;;
23129;SDS011;11734;51.046;13.778;2024-03-02T01:40:14;46.40;;;33.70;;
23129;SDS011;11734;51.046;13.778;2024-03-02T01:42:41;45.97;;;32.50;;
23129;SDS011;11734;51.046;13.778;2024-03-02T01:45:10;42.53;;;32.07;;
23129;SDS011;11734;51.046;13.778;2024-03-02T01:47:37;45.70;;;33.17;;
23129;SDS011;11734;51.046;13.778;2024-03-02T01:50:05;47.63;;;32.70;;
23129;SDS011;11734;51.046;13.778;2024-03-02T01:52:32;47.00;;;33.13;;
23129;SDS011;11734;51.046;13.778;2024-03-02T01:54:59;46.80;;;34.50;;
23129;SDS011;11734;51.046;13.778;2024-03-02T01:57:27;45.33;;;33.87;;
23129;SDS011;11734;51.046;13.778;2024-03-02T01:59:54;52.73;;;34.53;;
23129;SDS011;11734;51.046;13.778;2024-03-02T02:02:21;50.90;;;34.10;;
23129;SDS011;11734;51.046;13.778;2024-03-02T02:04:48;45.03;;;33.20;;
23129;SDS011;11734;51.046;13.778;2024-03-02T02:07:16;48.73;;;34.97;;
23129;SDS011;11734;51.046;13.778;2024-03-02T02:09:43;50.60;;;34.67;;
23129;SDS011;11734;51.046;13.778;2024-03-02T02:12:11;52.33;;;34.40;;
23129;SDS011;11734;51.046;13.778;2024-03-02T02:14:38;50.73;;;34.80;;
23129;SDS011;11734;51.046;13.778;2024-03-02T02:17:06;50.60;;;34.63;;
23129;SDS011;11734;51.046;13.778;2024-03-02T02:19:34;48.03;;;32.87;;
23129;SDS011;11734;51.046;13.778;2024-03-02T02:22:01;50.13;;;34.07;;
23129;SDS011;11734;51.046;13.778;2024-03-02T02:24:28;47.87;;;33.63;;
23129;SDS011;11734;51.046;13.778;2024-03-02T02:26:55;51.57;;;34.93;;
23129;SDS011;11734;51.046;13.778;2024-03-02T02:29:23;55.43;;;36.17;;
23129;SDS011;11734;51.046;13.778;2024-03-02T02:31:50;50.90;;;35.87;;
23129;SDS011;11734;51.046;13.778;2024-03-02T02:34:17;51.73;;;34.60;;
23129;SDS011;11734;51.046;13.778;2024-03-02T02:36:44;54.97;;;36.37;;
23129;SDS011;11734;51.046;13.778;2024-03-02T02:39:13;56.43;;;36.63;;
23129;SDS011;11734;51.046;13.778;2024-03-02T02:41:41;57.80;;;36.60;;
23129;SDS011;11734;51.046;13.778;2024-03-02T02:44:08;57.27;;;36.73;;
23129;SDS011;11734;51.046;13.778;2024-03-02T02:46:39;58.53;;;37.00;;
23129;SDS011;11734;51.046;13.778;2024-03-02T02:49:06;55.70;;;35.40;;
23129;SDS011;11734;51.046;13.778;2024-03-02T02:51:34;60.77;;;35.63;;
23129;SDS011;11734;51.046;13.778;2024-03-02T02:54:01;62.47;;;38.33;;
23129;SDS011;11734;51.046;13.778;2024-03-02T02:56:29;57.17;;;35.07;;
23129;SDS011;11734;51.046;13.778;2024-03-02T02:58:56;56.77;;;35.37;;
23129;SDS011;11734;51.046;13.778;2024-03-02T03:01:23;56.13;;;35.93;;
23129;SDS011;11734;51.046;13.778;2024-03-02T03:03:52;56.73;;;36.23;;
23129;SDS011;11734;51.046;13.778;2024-03-02T03:06:19;56.17;;;37.10;;
23129;SDS011;11734;51.046;13.778;2024-03-02T03:08:46;53.60;;;35.00;;
23129;SDS011;11734;51.046;13.778;2024-03-02T03:11:14;57.27;;;37.67;;
23129;SDS011;11734;51.046;13.778;2024-03-02T03:13:41;58.10;;;36.73;;
23129;SDS011;11734;51.046;13.778;2024-03-02T03:16:08;61.40;;;36.33;;
23129;SDS011;11734;51.046;13.778;2024-03-02T03:18:36;60.70;;;35.47;;
23129;SDS011;11734;51.046;13.778;2024-03-02T03:21:04;63.60;;;36.80;;
23129;SDS011;11734;51.046;13.778;2024-03-02T03:23:32;61.23;;;37.93;;
23129;SDS011;11734;51.046;13.778;2024-03-02T03:25:59;62.30;;;36.23;;
23129;SDS011;11734;51.046;13.778;2024-03-02T03:28:27;62.37;;;37.60;;
23129;SDS011;11734;51.046;13.778;2024-03-02T03:30:54;65.17;;;38.47;;
23129;SDS011;11734;51.046;13.778;2024-03-02T03:33:21;65.43;;;38.50;;
23129;SDS011;11734;51.046;13.778;2024-03-02T03:35:49;64.47;;;35.30;;
23129;SDS011;11734;51.046;13.778;2024-03-02T03:38:16;66.80;;;38.37;;
23129;SDS011;11734;51.046;13.778;2024-03-02T03:40:43;63.13;;;35.73;;
23129;SDS011;11734;51.046;13.778;2024-03-02T03:43:11;61.93;;;35.30;;
23129;SDS011;11734;51.046;13.778;2024-03-02T03:45:38;66.23;;;37.80;;
23129;SDS011;11734;51.046;13.778;2024-03-02T03:48:05;66.17;;;37.40;;
23129;SDS011;11734;51.046;13.778;2024-03-02T03:50:33;62.97;;;37.23;;
23129;SDS011;11734;51.046;13.778;2024-03-02T03:53:00;67.27;;;36.93;;
23129;SDS011;11734;51.046;13.778;2024-03-02T03:55:27;65.17;;;35.33;;
23129;SDS011;11734;51.046;13.778;2024-03-02T03:57:55;69.47;;;39.33;;
23129;SDS011;11734;51.046;13.778;2024-03-02T04:00:22;66.27;;;37.30;;
23129;SDS011;11734;51.046;13.778;2024-03-02T04:02:49;65.77;;;37.57;;
23129;SDS011;11734;51.046;13.778;2024-03-02T04:05:16;69.57;;;37.07;;
23129;SDS011;11734;51.046;13.778;2024-03-02T04:07:44;67.27;;;36.83;;
23129;SDS011;11734;51.046;13.778;2024-03-02T04:10:11;67.83;;;38.40;;
23129;SDS011;11734;51.046;13.778;2024-03-02T04:12:39;68.47;;;37.23;;
23129;SDS011;11734;51.046;13.778;2024-03-02T04:15:07;73.40;;;39.70;;
23129;SDS011;11734;51.046;13.778;2024-03-02T04:17:34;64.77;;;38.23;;
23129;SDS011;11734;51.046;13.778;2024-03-02T04:20:03;69.17;;;37.70;;
23129;SDS011;11734;51.046;13.778;2024-03-02T04:22:33;71.70;;;38.87;;
23129;SDS011;11734;51.046;13.778;2024-03-02T04:25:02;70.97;;;37.47;;
23129;SDS011;11734;51.046;13.778;2024-03-02T04:27:31;74.33;;;39.20;;
23129;SDS011;11734;51.046;13.778;2024-03-02T04:29:59;76.47;;;39.23;;
23129;SDS011;11734;51.046;13.778;2024-03-02T04:32:27;70.13;;;38.13;;
23129;SDS011;11734;51.046;13.778;2024-03-02T04:34:54;66.83;;;37.47;;
23129;SDS011;11734;51.046;13.778;2024-03-02T04:37:22;67.87;;;36.53;;
23129;SDS011;11734;51.046;13.778;2024-03-02T04:39:49;67.30;;;36.07;;
23129;SDS011;11734;51.046;13.778;2024-03-02T04:42:16;70.30;;;37.20;;
23129;SDS011;11734;51.046;13.778;2024-03-02T04:44:43;70.20;;;38.03;;
23129;SDS011;11734;51.046;13.778;2024-03-02T04:47:11;66.77;;;35.57;;
23129;SDS011;11734;51.046;13.778;2024-03-02T04:49:38;70.07;;;38.50;;
23129;SDS011;11734;51.046;13.778;2024-03-02T04:52:06;66.63;;;36.97;;
23129;SDS011;11734;51.046;13.778;2024-03-02T04:54:33;65.40;;;36.93;;
23129;SDS011;11734;51.046;13.778;2024-03-02T04:57:20;69.03;;;38.60;;
23129;SDS011;11734;51.046;13.778;2024-03-02T04:59:48;64.70;;;36.47;;
23129;SDS011;11734;51.046;13.778;2024-03-02T05:02:15;66.20;;;37.70;;
23129;SDS011;11734;51.046;13.778;2024-03-02T05:04:42;65.00;;;37.63;;
23129;SDS011;11734;51.046;13.778;2024-03-02T05:07:09;66.83;;;38.53;;
23129;SDS011;11734;51.046;13.778;2024-03-02T05:09:37;68.20;;;37.03;;
23129;SDS011;11734;51.046;13.778;2024-03-02T05:12:04;67.03;;;37.13;;
23129;SDS011;11734;51.046;13.778;2024-03-02T05:14:51;72.20;;;38.27;;
23129;SDS011;11734;51.046;13.778;2024-03-02T05:17:18;68.47;;;38.43;;
23129;SDS011;11734;51.046;13.778;2024-03-02T05:19:45;67.97;;;37.27;;
23129;SDS011;11734;51.046;13.778;2024-03-02T05:22:12;59.23;;;35.40;;
23129;SDS011;11734;51.046;13.778;2024-03-02T05:24:40;66.80;;;37.93;;
23129;SDS011;11734;51.046;13.778;2024-03-02T05:27:07;64.70;;;36.63;;
23129;SDS011;11734;51.046;13.778;2024-03-02T05:29:34;61.27;;;35.67;;
23129;SDS011;11734;51.046;13.778;2024-03-02T05:32:02;61.63;;;34.97;;
23129;SDS011;11734;51.046;13.778;2024-03-02T05:34:29;60.87;;;33.63;;
23129;SDS011;11734;51.046;13.778;2024-03-02T05:36:59;62.37;;;34.73;;
23129;SDS011;11734;51.046;13.778;2024-03-02T05:39:26;60.03;;;34.70;;
23129;SDS011;11734;51.046;13.778;2024-03-02T05:41:53;54.47;;;33.00;;
23129;SDS011;11734;51.046;13.778;2024-03-02T05:44:20;55.23;;;32.40;;
23129;SDS011;11734;51.046;13.778;2024-03-02T05:46:48;55.17;;;33.20;;
23129;SDS011;11734;51.046;13.778;2024-03-02T05:49:16;52.13;;;31.80;;
23129;SDS011;11734;51.046;13.778;2024-03-02T05:51:43;52.83;;;32.27;;
23129;SDS011;11734;51.046;13.778;2024-03-02T05:54:11;55.57;;;33.67;;
23129;SDS011;11734;51.046;13.778;2024-03-02T05:56:38;51.47;;;31.80;;
23129;SDS011;11734;51.046;13.778;2024-03-02T05:59:05;52.50;;;31.67;;
23129;SDS011;11734;51.046;13.778;2024-03-02T06:01:39;52.23;;;30.83;;
23129;SDS011;11734;51.046;13.778;2024-03-02T06:04:07;51.03;;;32.03;;
23129;SDS011;11734;51.046;13.778;2024-03-02T06:06:34;51.83;;;32.33;;
23129;SDS011;11734;51.046;13.778;2024-03-02T06:09:02;50.03;;;31.13;;
23129;SDS011;11734;51.046;13.778;2024-03-02T06:11:36;52.23;;;30.93;;
23129;SDS011;11734;51.046;13.778;2024-03-02T06:14:04;51.20;;;31.47;;
23129;SDS011;11734;51.046;13.778;2024-03-02T06:16:31;50.53;;;31.77;;
23129;SDS011;11734;51.046;13.778;2024-03-02T06:18:58;52.20;;;32.43;;
23129;SDS011;11734;51.046;13.778;2024-03-02T06:21:26;47.63;;;31.57;;
23129;SDS011;11734;51.046;13.778;2024-03-02T06:23:54;51.70;;;30.40;;
23129;SDS011;11734;51.046;13.778;2024-03-02T06:26:21;48.87;;;30.07;;
23129;SDS011;11734;51.046;13.778;2024-03-02T06:28:51;47.97;;;31.00;;
23129;SDS011;11734;51.046;13.778;2024-03-02T06:31:19;50.33;;;29.40;;
23129;SDS011;11734;51.046;13.778;2024-03-02T06:33:46;49.40;;;31.17;;
23129;SDS011;11734;51.046;13.778;2024-03-02T06:36:13;46.77;;;30.00;;
23129;SDS011;11734;51.046;13.778;2024-03-02T06:38:42;55.30;;;31.20;;
23129;SDS011;11734;51.046;13.778;2024-03-02T06:41:09;50.47;;;32.07;;
23129;SDS011;11734;51.046;13.778;2024-03-02T06:43:37;48.80;;;29.70;;
23129;SDS011;11734;51.046;13.778;2024-03-02T06:46:05;51.33;;;30.27;;
23129;SDS011;11734;51.046;13.778;2024-03-02T06:48:36;50.60;;;31.50;;
23129;SDS011;11734;51.046;13.778;2024-03-02T06:51:03;52.83;;;31.97;;
23129;SDS011;11734;51.046;13.778;2024-03-02T06:53:30;53.43;;;31.50;;
23129;SDS011;11734;51.046;13.778;2024-03-02T06:56:00;55.73;;;31.87;;
23129;SDS011;11734;51.046;13.778;2024-03-02T06:58:27;50.77;;;30.37;;
23129;SDS011;11734;51.046;13.778;2024-03-02T07:00:54;51.77;;;29.47;;
23129;SDS011;11734;51.046;13.778;2024-03-02T07:03:22;55.43;;;31.53;;
23129;SDS011;11734;51.046;13.778;2024-03-02T07:05:49;51.23;;;31.23;;
23129;SDS011;11734;51.046;13.778;2024-03-02T07:08:16;51.70;;;31.23;;
23129;SDS011;11734;51.046;13.778;2024-03-02T07:10:44;48.10;;;29.93;;
23129;SDS011;11734;51.046;13.778;2024-03-02T07:13:11;50.57;;;29.53;;
23129;SDS011;11734;51.046;13.778;2024-03-02T07:15:39;50.80;;;29.50;;
23129;SDS011;11734;51.046;13.778;2024-03-02T07:18:21;47.60;;;28.50;;
23129;SDS011;11734;51.046;13.778;2024-03-02T07:20:48;55.03;;;30.63;;
23129;SDS011;11734;51.046;13.778;2024-03-02T07:23:16;53.50;;;30.00;;
23129;SDS011;11734;51.046;13.778;2024-03-02T07:25:43;52.67;;;31.47;;
23129;SDS011;11734;51.046;13.778;2024-03-02T07:28:13;51.97;;;30.87;;
23129;SDS011;11734;51.046;13.778;2024-03-02T07:30:40;53.10;;;30.80;;
23129;SDS011;11734;51.046;13.778;2024-03-02T07:33:08;56.73;;;31.13;;
23129;SDS011;11734;51.046;13.778;2024-03-02T07:35:35;52.13;;;30.70;;
23129;SDS011;11734;51.046;13.778;2024-03-02T07:38:02;60.77;;;32.77;;
23129;SDS011;11734;51.046;13.778;2024-03-02T07:40:30;56.87;;;31.93;;
23129;SDS011;11734;51.046;13.778;2024-03-02T07:42:58;55.70;;;33.77;;
23129;SDS011;11734;51.046;13.778;2024-03-02T07:45:25;56.93;;;32.97;;
23129;SDS011;11734;51.046;13.778;2024-03-02T07:47:52;56.90;;;32.10;;
23129;SDS011;11734;51.046;13.778;2024-03-02T07:50:20;59.67;;;33.17;;
23129;SDS011;11734;51.046;13.778;2024-03-02T07:52:47;61.57;;;32.17;;
23129;SDS011;11734;51.046;13.778;2024-03-02T07:55:15;57.17;;;31.87;;
23129;SDS011;11734;51.046;13.778;2024-03-02T07:57:43;58.20;;;33.30;;
23129;SDS011;11734;51.046;13.778;2024-03-02T08:00:10;58.90;;;34.23;;
23129;SDS011;11734;51.046;13.778;2024-03-02T08:02:38;60.80;;;33.03;;
23129;SDS011;11734;51.046;13.778;2024-03-02T08:05:05;63.63;;;34.97;;
23129;SDS011;11734;51.046;13.778;2024-03-02T08:07:33;64.57;;;33.17;;
23129;SDS011;11734;51.046;13.778;2024-03-02T08:10:00;60.33;;;33.27;;
23129;SDS011;11734;51.046;13.778;2024-03-02T08:12:28;60.53;;;33.10;;
23129;SDS011;11734;51.046;13.778;2024-03-02T08:14:55;59.20;;;32.67;;
23129;SDS011;11734;51.046;13.778;2024-03-02T08:17:23;59.50;;;31.03;;
23129;SDS011;11734;51.046;13.778;2024-03-02T08:19:50;63.40;;;33.27;;
23129;SDS011;11734;51.046;13.778;2024-03-02T08:22:17;53.40;;;30.03;;
23129;SDS011;11734;51.046;13.778;2024-03-02T08:24:44;53.10;;;30.27;;
23129;SDS011;11734;51.046;13.778;2024-03-02T08:27:12;53.13;;;27.60;;
23129;SDS011;11734;51.046;13.778;2024-03-02T08:29:40;49.07;;;28.03;;
23129;SDS011;11734;51.046;13.778;2024-03-02T08:32:08;44.87;;;26.43;;
23129;SDS011;11734;51.046;13.778;2024-03-02T08:34:35;49.77;;;27.47;;
23129;SDS011;11734;51.046;13.778;2024-03-02T08:37:02;46.70;;;27.70;;
23129;SDS011;11734;51.046;13.778;2024-03-02T08:39:30;41.93;;;24.43;;
23129;SDS011;11734;51.046;13.778;2024-03-02T08:41:57;44.83;;;24.73;;
23129;SDS011;11734;51.046;13.778;2024-03-02T08:44:24;42.73;;;25.93;;
23129;SDS011;11734;51.046;13.778;2024-03-02T08:46:51;40.53;;;24.43;;
23129;SDS011;11734;51.046;13.778;2024-03-02T08:49:19;42.83;;;23.53;;
23129;SDS011;11734;51.046;13.778;2024-03-02T08:51:46;42.67;;;24.47;;
23129;SDS011;11734;51.046;13.778;2024-03-02T08:54:21;40.33;;;24.43;;
23129;SDS011;11734;51.046;13.778;2024-03-02T08:56:49;43.00;;;23.73;;
23129;SDS011;11734;51.046;13.778;2024-03-02T08:59:16;40.77;;;24.23;;
23129;SDS011;11734;51.046;13.778;2024-03-02T09:01:44;37.17;;;23.47;;
23129;SDS011;11734;51.046;13.778;2024-03-02T09:04:11;41.30;;;23.43;;
23129;SDS011;11734;51.046;13.778;2024-03-02T09:06:38;40.93;;;22.47;;
23129;SDS011;11734;51.046;13.778;2024-03-02T09:09:06;38.10;;;22.00;;
23129;SDS011;11734;51.046;13.778;2024-03-02T09:11:33;37.47;;;22.13;;
23129;SDS011;11734;51.046;13.778;2024-03-02T09:14:01;41.60;;;23.23;;
23129;SDS011;11734;51.046;13.778;2024-03-02T09:16:28;35.60;;;22.23;;
23129;SDS011;11734;51.046;13.778;2024-03-02T09:18:57;35.80;;;21.60;;
23129;SDS011;11734;51.046;13.778;2024-03-02T09:21:24;41.67;;;22.23;;
23129;SDS011;11734;51.046;13.778;2024-03-02T09:23:52;38.83;;;22.27;;
23129;SDS011;11734;51.046;13.778;2024-03-02T09:26:19;38.97;;;22.10;;
23129;SDS011;11734;51.046;13.778;2024-03-02T09:28:47;37.20;;;21.33;;
23129;SDS011;11734;51.046;13.778;2024-03-02T09:31:14;37.83;;;21.90;;
23129;SDS011;11734;51.046;13.778;2024-03-02T09:33:41;39.20;;;23.70;;
23129;SDS011;11734;51.046;13.778;2024-03-02T09:36:19;40.97;;;22.77;;
23129;SDS011;11734;51.046;13.778;2024-03-02T09:38:46;36.43;;;22.43;;
23129;SDS011;11734;51.046;13.778;2024-03-02T09:41:14;35.80;;;21.87;;
23129;SDS011;11734;51.046;13.778;2024-03-02T09:43:42;40.23;;;23.67;;
23129;SDS011;11734;51.046;13.778;2024-03-02T09:46:10;41.37;;;23.30;;
23129;SDS011;11734;51.046;13.778;2024-03-02T09:48:38;34.93;;;21.77;;
23129;SDS011;11734;51.046;13.778;2024-03-02T09:51:05;39.73;;;22.83;;
23129;SDS011;11734;51.046;13.778;2024-03-02T09:53:33;38.07;;;21.90;;
23129;SDS011;11734;51.046;13.778;2024-03-02T09:56:01;40.37;;;22.83;;
23129;SDS011;11734;51.046;13.778;2024-03-02T09:58:29;33.60;;;19.37;;
23129;SDS011;11734;51.046;13.778;2024-03-02T10:00:56;38.13;;;22.83;;
23129;SDS011;11734;51.046;13.778;2024-03-02T10:03:24;40.33;;;22.97;;
23129;SDS011;11734;51.046;13.778;2024-03-02T10:05:51;37.20;;;21.73;;
23129;SDS011;11734;51.046;13.778;2024-03-02T10:08:19;39.90;;;22.90;;
23129;SDS011;11734;51.046;13.778;2024-03-02T10:10:46;42.83;;;22.77;;
23129;SDS011;11734;51.046;13.778;2024-03-02T10:13:13;40.47;;;22.80;;
23129;SDS011;11734;51.046;13.778;2024-03-02T10:15:41;39.93;;;22.73;;
23129;SDS011;11734;51.046;13.778;2024-03-02T10:18:09;40.33;;;22.97;;
23129;SDS011;11734;51.046;13.778;2024-03-02T10:20:38;36.97;;;23.20;;
23129;SDS011;11734;51.046;13.778;2024-03-02T10:23:09;39.13;;;22.93;;
23129;SDS011;11734;51.046;13.778;2024-03-02T10:25:37;43.87;;;23.93;;
23129;SDS011;11734;51.046;13.778;2024-03-02T10:28:16;44.33;;;24.33;;
23129;SDS011;11734;51.046;13.778;2024-03-02T10:30:44;37.77;;;21.47;;
23129;SDS011;11734;51.046;13.778;2024-03-02T10:33:14;36.43;;;22.00;;
23129;SDS011;11734;51.046;13.778;2024-03-02T10:35:41;40.27;;;23.33;;
23129;SDS011;11734;51.046;13.778;2024-03-02T10:38:09;40.23;;;22.50;;
23129;SDS011;11734;51.046;13.778;2024-03-02T10:40:38;37.17;;;22.27;;
23129;SDS011;11734;51.046;13.778;2024-03-02T10:43:05;38.13;;;22.40;;
23129;SDS011;11734;51.046;13.778;2024-03-02T10:45:34;35.67;;;21.63;;
23129;SDS011;11734;51.046;13.778;2024-03-02T10:48:02;32.77;;;21.37;;
23129;SDS011;11734;51.046;13.778;2024-03-02T10:50:33;36.33;;;19.83;;
23129;SDS011;11734;51.046;13.778;2024-03-02T10:53:00;32.23;;;19.10;;
23129;SDS011;11734;51.046;13.778;2024-03-02T10:55:27;34.17;;;19.53;;
23129;SDS011;11734;51.046;13.778;2024-03-02T10:57:55;28.70;;;17.50;;
23129;SDS011;11734;51.046;13.778;2024-03-02T11:00:25;29.53;;;17.30;;
23129;SDS011;11734;51.046;13.778;2024-03-02T11:02:57;25.10;;;16.30;;
23129;SDS011;11734;51.046;13.778;2024-03-02T11:05:28;20.47;;;13.53;;
23129;SDS011;11734;51.046;13.778;2024-03-02T11:08:02;21.17;;;13.50;;
23129;SDS011;11734;51.046;13.778;2024-03-02T11:10:48;21.97;;;14.53;;
23129;SDS011;11734;51.046;13.778;2024-03-02T11:13:24;17.60;;;11.83;;
23129;SDS011;11734;51.046;13.778;2024-03-02T11:15:55;16.23;;;11.50;;
23129;SDS011;11734;51.046;13.778;2024-03-02T11:18:26;16.30;;;11.20;;
23129;SDS011;11734;51.046;13.778;2024-03-02T11:20:54;16.83;;;11.83;;
23129;SDS011;11734;51.046;13.778;2024-03-02T11:23:31;17.97;;;11.90;;
23129;SDS011;11734;51.046;13.778;2024-03-02T11:26:18;15.13;;;11.90;;
23129;SDS011;11734;51.046;13.778;2024-03-02T11:28:45;12.83;;;9.87;;
23129;SDS011;11734;51.046;13.778;2024-03-02T11:31:13;17.37;;;11.23;;
23129;SDS011;11734;51.046;13.778;2024-03-02T11:33:40;15.33;;;11.23;;
23129;SDS011;11734;51.046;13.778;2024-03-02T11:36:08;14.80;;;9.80;;
23129;SDS011;11734;51.046;13.778;2024-03-02T11:38:38;15.20;;;10.80;;
23129;SDS011;11734;51.046;13.778;2024-03-02T11:41:08;13.10;;;9.27;;
23129;SDS011;11734;51.046;13.778;2024-03-02T11:43:38;12.73;;;9.33;;
23129;SDS011;11734;51.046;13.778;2024-03-02T11:46:06;16.20;;;9.73;;
23129;SDS011;11734;51.046;13.778;2024-03-02T11:48:35;14.60;;;9.63;;
23129;SDS011;11734;51.046;13.778;2024-03-02T11:51:03;13.17;;;9.43;;
23129;SDS011;11734;51.046;13.778;2024-03-02T11:53:31;13.43;;;9.77;;
23129;SDS011;11734;51.046;13.778;2024-03-02T11:56:01;12.80;;;9.97;;
23129;SDS011;11734;51.046;13.778;2024-03-02T11:58:29;14.40;;;9.90;;
23129;SDS011;11734;51.046;13.778;2024-03-02T12:00:57;13.83;;;9.57;;
23129;SDS011;11734;51.046;13.778;2024-03-02T12:03:25;14.90;;;10.10;;
23129;SDS011;11734;51.046;13.778;2024-03-02T12:05:53;13.77;;;10.13;;
23129;SDS011;11734;51.046;13.778;2024-03-02T12:08:21;15.90;;;11.10;;
23129;SDS011;11734;51.046;13.778;2024-03-02T12:10:57;19.97;;;12.27;;
23129;SDS011;11734;51.046;13.778;2024-03-02T12:13:24;18.77;;;12.33;;
23129;SDS011;11734;51.046;13.778;2024-03-02T12:15:55;23.10;;;12.93;;
23129;SDS011;11734;51.046;13.778;2024-03-02T12:18:23;21.10;;;12.17;;
23129;SDS011;11734;51.046;13.778;2024-03-02T12:20:52;17.97;;;11.53;;
23129;SDS011;11734;51.046;13.778;2024-03-02T12:23:23;19.80;;;11.60;;
23129;SDS011;11734;51.046;13.778;2024-03-02T12:25:50;19.37;;;11.47;;
23129;SDS011;11734;51.046;13.778;2024-03-02T12:28:17;20.30;;;12.80;;
23129;SDS011;11734;51.046;13.778;2024-03-02T12:30:46;21.47;;;12.90;;
23129;SDS011;11734;51.046;13.778;2024-03-02T12:33:14;21.23;;;12.53;;
23129;SDS011;11734;51.046;13.778;2024-03-02T12:35:42;20.87;;;12.87;;
23129;SDS011;11734;51.046;13.778;2024-03-02T12:38:09;18.40;;;12.67;;
23129;SDS011;11734;51.046;13.778;2024-03-02T12:40:37;17.30;;;12.53;;
23129;SDS011;11734;51.046;13.778;2024-03-02T12:43:05;18.67;;;12.30;;
23129;SDS011;11734;51.046;13.778;2024-03-02T12:45:34;17.90;;;12.50;;
23129;SDS011;11734;51.046;13.778;2024-03-02T12:48:02;18.30;;;11.83;;
23129;SDS011;11734;51.046;13.778;2024-03-02T12:50:29;18.20;;;12.17;;
23129;SDS011;11734;51.046;13.778;2024-03-02T12:52:57;17.10;;;11.27;;
23129;SDS011;11734;51.046;13.778;2024-03-02T12:55:25;20.23;;;12.70;;
23129;SDS011;11734;51.046;13.778;2024-03-02T12:57:52;18.40;;;11.10;;
23129;SDS011;11734;51.046;13.778;2024-03-02T13:00:20;19.03;;;12.53;;
23129;SDS011;11734;51.046;13.778;2024-03-02T13:02:49;17.30;;;11.77;;
23129;SDS011;11734;51.046;13.778;2024-03-02T13:05:18;16.57;;;12.03;;
23129;SDS011;11734;51.046;13.778;2024-03-02T13:07:47;19.53;;;11.83;;
23129;SDS011;11734;51.046;13.778;2024-03-02T13:10:15;16.87;;;10.83;;
23129;SDS011;11734;51.046;13.778;2024-03-02T13:12:42;17.10;;;11.50;;
23129;SDS011;11734;51.046;13.778;2024-03-02T13:15:10;19.60;;;10.80;;
23129;SDS011;11734;51.046;13.778;2024-03-02T13:17:44;17.83;;;11.60;;
23129;SDS011;11734;51.046;13.778;2024-03-02T13:20:13;17.67;;;11.17;;
23129;SDS011;11734;51.046;13.778;2024-03-02T13:22:41;19.43;;;11.50;;
23129;SDS011;11734;51.046;13.778;2024-03-02T13:25:08;17.10;;;10.80;;
23129;SDS011;11734;51.046;13.778;2024-03-02T13:27:38;18.67;;;11.83;;
23129;SDS011;11734;51.046;13.778;2024-03-02T13:30:05;19.37;;;11.77;;
23129;SDS011;11734;51.046;13.778;2024-03-02T13:32:35;18.83;;;12.07;;
23129;SDS011;11734;51.046;13.778;2024-03-02T13:35:02;20.13;;;13.30;;
23129;SDS011;11734;51.046;13.778;2024-03-02T13:37:29;17.97;;;12.03;;
23129;SDS011;11734;51.046;13.778;2024-03-02T13:39:57;17.57;;;10.93;;
23129;SDS011;11734;51.046;13.778;2024-03-02T13:42:24;19.30;;;12.67;;
23129;SDS011;11734;51.046;13.778;2024-03-02T13:44:52;21.27;;;12.10;;
23129;SDS011;11734;51.046;13.778;2024-03-02T13:47:19;17.00;;;10.87;;
23129;SDS011;11734;51.046;13.778;2024-03-02T13:49:47;19.87;;;12.23;;
23129;SDS011;11734;51.046;13.778;2024-03-02T13:52:15;17.37;;;11.37;;
23129;SDS011;11734;51.046;13.778;2024-03-02T13:54:44;17.13;;;12.30;;
23129;SDS011;11734;51.046;13.778;2024-03-02T13:57:12;16.93;;;12.77;;
23129;SDS011;11734;51.046;13.778;2024-03-02T13:59:40;18.73;;;11.80;;
23129;SDS011;11734;51.046;13.778;2024-03-02T14:02:08;20.43;;;12.47;;
23129;SDS011;11734;51.046;13.778;2024-03-02T14:04:36;20.13;;;12.03;;
23129;SDS011;11734;51.046;13.778;2024-03-02T14:07:04;17.43;;;11.53;;
23129;SDS011;11734;51.046;13.778;2024-03-02T14:09:35;15.87;;;12.33;;
23129;SDS011;11734;51.046;13.778;2024-03-02T14:12:03;17.83;;;12.33;;
23129;SDS011;11734;51.046;13.778;2024-03-02T14:14:32;19.33;;;13.43;;
23129;SDS011;11734;51.046;13.778;2024-03-02T14:16:59;19.60;;;14.00;;
23129;SDS011;11734;51.046;13.778;2024-03-02T14:19:32;19.40;;;14.93;;